createdAt,value
2024-03-27T00:00:13.554Z,80.02
2024-03-27T00:00:43.538Z,79.93
2024-03-27T00:01:13.534Z,79.72
2024-03-27T00:01:43.556Z,79.72
2024-03-27T00:02:13.560Z,79.72
2024-03-27T00:02:46.568Z,79.41
2024-03-27T00:03:31.621Z,79.30
2024-03-27T00:03:43.511Z,79.30
2024-03-27T00:04:13.503Z,79.30
2024-03-27T00:04:43.536Z,79.30
2024-03-27T00:05:13.491Z,79.30
2024-03-27T00:05:43.479Z,79.30
2024-03-27T00:06:13.510Z,79.20
2024-03-27T00:06:43.480Z,79.20
2024-03-27T00:07:13.498Z,79.20
2024-03-27T00:07:43.477Z,79.20
2024-03-27T00:08:13.495Z,79.20
2024-03-27T00:08:43.504Z,79.20
2024-03-27T00:09:13.551Z,79.20
2024-03-27T00:09:44.026Z,79.30
2024-03-27T00:10:13.446Z,79.30
2024-03-27T00:10:43.441Z,79.30
2024-03-27T00:11:13.440Z,79.30
2024-03-27T00:11:43.422Z,79.30
2024-03-27T00:12:14.031Z,79.30
2024-03-27T00:12:43.406Z,79.41
2024-03-27T00:13:13.438Z,79.30
2024-03-27T00:13:43.423Z,79.30
2024-03-27T00:14:13.436Z,79.20
2024-03-27T00:14:43.421Z,79.20
2024-03-27T00:15:13.396Z,79.10
2024-03-27T00:15:43.387Z,79.00
2024-03-27T00:16:13.412Z,79.10
2024-03-27T00:16:43.494Z,79.00
2024-03-27T00:17:13.579Z,79.00
2024-03-27T00:17:43.360Z,79.00
2024-03-27T00:18:13.373Z,79.00
2024-03-27T00:18:43.372Z,79.00
2024-03-27T00:19:13.369Z,78.89
2024-03-27T00:19:43.378Z,78.89
2024-03-27T00:20:13.356Z,78.79
2024-03-27T00:20:43.368Z,78.79
2024-03-27T00:21:13.326Z,78.79
2024-03-27T00:21:43.342Z,78.79
2024-03-27T00:22:13.317Z,78.79
2024-03-27T00:22:43.344Z,78.89
2024-03-27T00:23:13.305Z,78.89
2024-03-27T00:23:43.308Z,78.79
2024-03-27T00:24:13.327Z,78.79
2024-03-27T00:24:43.315Z,78.79
2024-03-27T00:25:13.336Z,78.69
2024-03-27T00:25:43.297Z,78.58
2024-03-27T00:26:13.303Z,78.48
2024-03-27T00:26:43.282Z,78.48
2024-03-27T00:27:13.276Z,78.38
2024-03-27T00:27:43.330Z,78.28
2024-03-27T00:28:13.253Z,78.28
2024-03-27T00:28:43.232Z,78.28
2024-03-27T00:29:13.295Z,78.17
2024-03-27T00:29:43.368Z,78.07
2024-03-27T00:30:13.243Z,78.07
2024-03-27T00:30:48.203Z,78.07
2024-03-27T00:31:31.321Z,78.07
2024-03-27T00:31:43.230Z,78.07
2024-03-27T00:32:13.214Z,78.07
2024-03-27T00:32:43.210Z,78.07
2024-03-27T00:33:13.206Z,78.07
2024-03-27T00:33:43.204Z,78.07
2024-03-27T00:34:13.186Z,78.07
2024-03-27T00:34:43.170Z,77.97
2024-03-27T00:35:13.205Z,77.97
2024-03-27T00:35:43.175Z,77.86
2024-03-27T00:36:13.185Z,77.76
2024-03-27T00:36:43.161Z,77.76
2024-03-27T00:37:13.212Z,77.76
2024-03-27T00:37:43.173Z,77.76
2024-03-27T00:38:13.165Z,77.76
2024-03-27T00:38:43.144Z,77.76
2024-03-27T00:39:13.141Z,77.66
2024-03-27T00:39:43.142Z,77.55
2024-03-27T00:40:13.149Z,77.45
2024-03-27T00:40:43.142Z,77.45
2024-03-27T00:41:13.140Z,77.45
2024-03-27T00:41:43.130Z,77.55
2024-03-27T00:42:13.120Z,77.55
2024-03-27T00:42:43.151Z,77.55
2024-03-27T00:43:13.121Z,77.55
2024-03-27T00:43:43.147Z,77.55
2024-03-27T00:44:13.132Z,77.66
2024-03-27T00:44:43.265Z,77.66
2024-03-27T00:45:13.295Z,77.25
2024-03-27T00:45:43.210Z,76.93
2024-03-27T00:46:13.314Z,76.73
2024-03-27T00:46:43.083Z,76.53
2024-03-27T00:47:13.268Z,76.32
2024-03-27T00:47:43.116Z,76.32
2024-03-27T00:48:13.074Z,76.32
2024-03-27T00:48:43.155Z,76.11
2024-03-27T00:49:13.176Z,75.97
2024-03-27T00:49:44.135Z,76.01
2024-03-27T00:50:13.020Z,75.90
2024-03-27T00:50:43.055Z,75.90
2024-03-27T00:51:13.236Z,75.87
2024-03-27T00:51:43.022Z,76.01
2024-03-27T00:52:13.908Z,76.01
2024-03-27T00:52:43.039Z,76.01
2024-03-27T00:53:13.045Z,76.01
2024-03-27T00:53:42.998Z,76.11
2024-03-27T00:54:13.005Z,76.11
2024-03-27T00:54:42.996Z,76.11
2024-03-27T00:55:14.548Z,76.11
2024-03-27T00:55:42.991Z,76.11
2024-03-27T00:56:12.994Z,76.11
2024-03-27T00:56:43.551Z,76.11
2024-03-27T00:57:13.098Z,76.11
2024-03-27T00:57:43.001Z,75.90
2024-03-27T00:58:12.976Z,75.90
2024-03-27T00:58:45.977Z,75.90
2024-03-27T00:59:31.105Z,75.81
2024-03-27T00:59:42.971Z,75.81
2024-03-27T01:00:12.937Z,75.81
2024-03-27T01:00:42.957Z,75.90
2024-03-27T01:01:13.028Z,76.21
2024-03-27T01:01:42.930Z,76.42
2024-03-27T01:02:12.984Z,76.42
2024-03-27T01:02:42.940Z,76.42
2024-03-27T01:03:12.892Z,76.42
2024-03-27T01:03:42.961Z,76.32
2024-03-27T01:04:12.919Z,76.32
2024-03-27T01:04:42.909Z,76.32
2024-03-27T01:05:12.929Z,76.21
2024-03-27T01:05:42.882Z,76.11
2024-03-27T01:06:12.858Z,76.11
2024-03-27T01:06:42.902Z,76.11
2024-03-27T01:07:12.902Z,76.01
2024-03-27T01:07:42.870Z,76.01
2024-03-27T01:08:12.826Z,76.11
2024-03-27T01:08:43.476Z,76.11
2024-03-27T01:09:12.845Z,76.21
2024-03-27T01:09:42.808Z,76.32
2024-03-27T01:10:12.820Z,76.32
2024-03-27T01:10:42.820Z,76.42
2024-03-27T01:11:12.807Z,76.42
2024-03-27T01:11:42.848Z,76.63
2024-03-27T01:12:12.871Z,76.73
2024-03-27T01:12:42.902Z,76.73
2024-03-27T01:13:13.017Z,76.83
2024-03-27T01:13:42.807Z,76.83
2024-03-27T01:14:12.815Z,76.63
2024-03-27T01:14:42.773Z,76.53
2024-03-27T01:15:12.769Z,76.53
2024-03-27T01:15:42.756Z,76.53
2024-03-27T01:16:12.757Z,76.73
2024-03-27T01:16:42.753Z,76.83
2024-03-27T01:17:12.758Z,76.93
2024-03-27T01:17:42.769Z,76.93
2024-03-27T01:18:12.755Z,76.93
2024-03-27T01:18:42.755Z,77.08
2024-03-27T01:19:12.710Z,77.25
2024-03-27T01:19:42.772Z,77.25
2024-03-27T01:20:12.758Z,77.28
2024-03-27T01:20:42.709Z,77.28
2024-03-27T01:21:12.709Z,77.28
2024-03-27T01:21:42.694Z,77.28
2024-03-27T01:22:13.420Z,77.28
2024-03-27T01:22:42.686Z,77.18
2024-03-27T01:23:12.675Z,76.97
2024-03-27T01:23:42.714Z,76.46
2024-03-27T01:24:12.663Z,76.35
2024-03-27T01:24:42.698Z,76.35
2024-03-27T01:25:12.670Z,76.15
2024-03-27T01:25:43.378Z,76.04
2024-03-27T01:26:12.694Z,75.73
2024-03-27T01:26:45.678Z,74.91
2024-03-27T01:27:30.828Z,74.60
2024-03-27T01:27:42.653Z,74.71
2024-03-27T01:28:12.652Z,75.01
2024-03-27T01:28:42.650Z,75.08
2024-03-27T01:29:12.624Z,75.49
2024-03-27T01:29:42.693Z,75.60
2024-03-27T01:30:12.615Z,75.70
2024-03-27T01:30:42.647Z,75.70
2024-03-27T01:31:12.640Z,75.90
2024-03-27T01:31:42.601Z,76.01
2024-03-27T01:32:12.582Z,76.11
2024-03-27T01:32:42.607Z,76.11
2024-03-27T01:33:12.582Z,75.70
2024-03-27T01:33:42.586Z,75.39
2024-03-27T01:34:12.593Z,75.49
2024-03-27T01:34:42.583Z,74.77
2024-03-27T01:35:12.598Z,74.26
2024-03-27T01:35:42.584Z,74.16
2024-03-27T01:36:12.552Z,74.36
2024-03-27T01:36:42.554Z,74.77
2024-03-27T01:37:12.530Z,75.08
2024-03-27T01:37:42.572Z,75.29
2024-03-27T01:38:12.593Z,75.18
2024-03-27T01:38:42.513Z,75.29
2024-03-27T01:39:12.570Z,75.39
2024-03-27T01:39:42.583Z,75.39
2024-03-27T01:40:12.531Z,75.70
2024-03-27T01:40:42.636Z,75.60
2024-03-27T01:41:12.751Z,75.60
2024-03-27T01:41:42.525Z,75.49
2024-03-27T01:42:12.529Z,75.32
2024-03-27T01:42:42.492Z,75.01
2024-03-27T01:43:12.500Z,75.32
2024-03-27T01:43:42.508Z,75.32
2024-03-27T01:44:12.495Z,75.43
2024-03-27T01:44:42.462Z,75.01
2024-03-27T01:45:12.480Z,74.40
2024-03-27T01:45:42.431Z,74.60
2024-03-27T01:46:12.442Z,74.71
2024-03-27T01:46:42.433Z,74.19
2024-03-27T01:47:12.437Z,74.08
2024-03-27T01:47:42.440Z,74.50
2024-03-27T01:48:12.536Z,75.12
2024-03-27T01:48:42.459Z,75.32
2024-03-27T01:49:12.443Z,75.43
2024-03-27T01:49:42.490Z,75.43
2024-03-27T01:50:12.434Z,75.01
2024-03-27T01:50:43.103Z,74.08
2024-03-27T01:51:12.403Z,73.23
2024-03-27T01:51:42.386Z,73.64
2024-03-27T01:52:12.479Z,74.05
2024-03-27T01:52:42.369Z,74.36
2024-03-27T01:53:12.388Z,74.57
2024-03-27T01:53:42.355Z,74.77
2024-03-27T01:54:12.363Z,74.88
2024-03-27T01:54:45.404Z,74.88
2024-03-27T01:55:30.469Z,74.77
2024-03-27T01:55:42.338Z,74.26
2024-03-27T01:56:12.354Z,74.16
2024-03-27T01:56:42.335Z,73.74
2024-03-27T01:57:12.347Z,73.64
2024-03-27T01:57:42.351Z,73.64
2024-03-27T01:58:12.372Z,73.54
2024-03-27T01:58:42.318Z,73.54
2024-03-27T01:59:12.301Z,73.54
2024-03-27T01:59:42.327Z,73.74
2024-03-27T02:00:12.321Z,74.05
2024-03-27T02:00:42.321Z,74.16
2024-03-27T02:01:12.303Z,74.16
2024-03-27T02:01:43.054Z,74.05
2024-03-27T02:02:12.280Z,74.16
2024-03-27T02:02:42.281Z,74.36
2024-03-27T02:03:12.282Z,74.36
2024-03-27T02:03:42.315Z,74.26
2024-03-27T02:04:13.041Z,74.16
2024-03-27T02:04:42.259Z,74.16
2024-03-27T02:05:12.247Z,73.95
2024-03-27T02:05:42.259Z,73.85
2024-03-27T02:06:12.311Z,73.85
2024-03-27T02:06:42.221Z,73.95
2024-03-27T02:07:12.208Z,74.05
2024-03-27T02:07:42.220Z,74.46
2024-03-27T02:08:12.211Z,74.57
2024-03-27T02:08:42.380Z,74.40
2024-03-27T02:09:12.382Z,74.29
2024-03-27T02:09:42.215Z,74.29
2024-03-27T02:10:12.189Z,74.50
2024-03-27T02:10:42.198Z,74.91
2024-03-27T02:11:12.195Z,75.12
2024-03-27T02:11:42.175Z,75.22
2024-03-27T02:12:12.199Z,75.32
2024-03-27T02:12:42.198Z,75.43
2024-03-27T02:13:12.237Z,75.53
2024-03-27T02:13:42.163Z,75.73
2024-03-27T02:14:12.198Z,76.04
2024-03-27T02:14:42.161Z,76.04
2024-03-27T02:15:12.164Z,76.04
2024-03-27T02:15:42.176Z,76.18
2024-03-27T02:16:12.137Z,76.18
2024-03-27T02:16:42.144Z,76.39
2024-03-27T02:17:16.614Z,76.39
2024-03-27T02:17:42.136Z,76.18
2024-03-27T02:18:12.132Z,76.08
2024-03-27T02:18:42.093Z,76.08
2024-03-27T02:19:12.098Z,76.39
2024-03-27T02:19:42.137Z,76.49
2024-03-27T02:20:12.211Z,76.59
2024-03-27T02:20:42.097Z,76.18
2024-03-27T02:21:12.105Z,75.87
2024-03-27T02:21:42.140Z,75.98
2024-03-27T02:22:12.086Z,76.08
2024-03-27T02:22:45.146Z,76.18
2024-03-27T02:23:30.305Z,76.39
2024-03-27T02:23:42.053Z,76.49
2024-03-27T02:24:12.073Z,76.49
2024-03-27T02:24:42.039Z,76.49
2024-03-27T02:25:12.080Z,76.42
2024-03-27T02:25:42.042Z,76.42
2024-03-27T02:26:12.024Z,76.42
2024-03-27T02:26:42.903Z,76.53
2024-03-27T02:27:12.024Z,76.53
2024-03-27T02:27:42.032Z,76.63
2024-03-27T02:28:12.042Z,76.63
2024-03-27T02:28:41.997Z,76.73
2024-03-27T02:29:12.003Z,76.73
2024-03-27T02:29:41.990Z,76.84
2024-03-27T02:30:12.070Z,76.94
2024-03-27T02:30:42.036Z,76.94
2024-03-27T02:31:11.974Z,76.94
2024-03-27T02:31:41.982Z,77.15
2024-03-27T02:32:11.972Z,77.15
2024-03-27T02:32:41.966Z,77.15
2024-03-27T02:33:12.018Z,77.15
2024-03-27T02:33:41.986Z,77.04
2024-03-27T02:34:11.934Z,76.94
2024-03-27T02:34:41.943Z,76.94
2024-03-27T02:35:11.980Z,77.04
2024-03-27T02:35:41.945Z,77.15
2024-03-27T02:36:11.997Z,77.04
2024-03-27T02:36:42.064Z,77.04
2024-03-27T02:37:12.107Z,76.84
2024-03-27T02:37:41.908Z,76.84
2024-03-27T02:38:11.914Z,77.04
2024-03-27T02:38:41.927Z,77.04
2024-03-27T02:39:11.891Z,77.04
2024-03-27T02:39:41.887Z,76.94
2024-03-27T02:40:12.150Z,76.94
2024-03-27T02:40:41.860Z,77.04
2024-03-27T02:41:11.932Z,77.04
2024-03-27T02:41:41.866Z,77.04
2024-03-27T02:42:11.847Z,77.04
2024-03-27T02:42:41.845Z,77.15
2024-03-27T02:43:11.885Z,77.15
2024-03-27T02:43:41.830Z,77.15
2024-03-27T02:44:11.856Z,77.15
2024-03-27T02:44:41.831Z,77.15
2024-03-27T02:45:11.849Z,77.15
2024-03-27T02:45:41.859Z,77.18
2024-03-27T02:46:11.870Z,77.18
2024-03-27T02:46:41.808Z,77.18
2024-03-27T02:47:11.828Z,77.08
2024-03-27T02:47:41.798Z,77.08
2024-03-27T02:48:11.805Z,77.18
2024-03-27T02:48:41.816Z,77.18
2024-03-27T02:49:11.853Z,77.28
2024-03-27T02:49:41.810Z,77.28
2024-03-27T02:50:11.833Z,77.28
2024-03-27T02:50:44.795Z,77.39
2024-03-27T02:51:29.914Z,77.39
2024-03-27T02:51:41.770Z,77.39
2024-03-27T02:52:11.753Z,77.39
2024-03-27T02:52:41.765Z,77.39
2024-03-27T02:53:11.730Z,77.39
2024-03-27T02:53:41.739Z,77.59
2024-03-27T02:54:11.743Z,77.91
2024-03-27T02:54:41.783Z,78.11
2024-03-27T02:55:11.691Z,78.11
2024-03-27T02:55:41.754Z,77.91
2024-03-27T02:56:11.729Z,78.01
2024-03-27T02:56:41.706Z,78.11
2024-03-27T02:57:11.705Z,78.11
2024-03-27T02:57:41.699Z,78.01
2024-03-27T02:58:11.709Z,78.11
2024-03-27T02:58:41.732Z,78.21
2024-03-27T02:59:11.677Z,78.31
2024-03-27T02:59:41.681Z,78.42
2024-03-27T03:00:11.695Z,78.52
2024-03-27T03:00:41.747Z,78.31
2024-03-27T03:01:11.690Z,78.21
2024-03-27T03:01:41.649Z,78.01
2024-03-27T03:02:11.644Z,77.80
2024-03-27T03:02:41.666Z,77.59
2024-03-27T03:03:11.663Z,77.39
2024-03-27T03:03:41.685Z,77.08
2024-03-27T03:04:11.632Z,76.67
2024-03-27T03:04:41.786Z,76.67
2024-03-27T03:05:11.779Z,76.67
2024-03-27T03:05:41.612Z,76.56
2024-03-27T03:06:11.684Z,76.67
2024-03-27T03:06:41.623Z,77.08
2024-03-27T03:07:11.582Z,77.18
2024-03-27T03:07:41.597Z,77.28
2024-03-27T03:08:11.605Z,77.28
2024-03-27T03:08:41.606Z,77.28
2024-03-27T03:09:11.583Z,77.28
2024-03-27T03:09:41.589Z,77.28
2024-03-27T03:10:11.581Z,77.28
2024-03-27T03:10:41.617Z,77.28
2024-03-27T03:11:11.599Z,77.28
2024-03-27T03:11:41.544Z,77.28
2024-03-27T03:12:11.565Z,77.08
2024-03-27T03:12:41.566Z,76.98
2024-03-27T03:13:11.529Z,77.08
2024-03-27T03:13:41.551Z,77.18
2024-03-27T03:14:11.532Z,77.18
2024-03-27T03:14:41.516Z,77.18
2024-03-27T03:15:11.588Z,77.18
2024-03-27T03:15:41.610Z,77.28
2024-03-27T03:16:11.521Z,77.08
2024-03-27T03:16:41.566Z,76.87
2024-03-27T03:17:11.516Z,76.67
2024-03-27T03:17:41.516Z,76.46
2024-03-27T03:18:11.466Z,76.25
2024-03-27T03:18:44.519Z,76.15
2024-03-27T03:19:29.590Z,76.15
2024-03-27T03:19:41.472Z,76.15
2024-03-27T03:20:11.440Z,76.04
2024-03-27T03:20:41.444Z,75.84
2024-03-27T03:21:11.475Z,75.84
2024-03-27T03:21:41.459Z,75.84
2024-03-27T03:22:11.491Z,75.63
2024-03-27T03:22:41.450Z,75.53
2024-03-27T03:23:11.439Z,75.53
2024-03-27T03:23:41.442Z,75.63
2024-03-27T03:24:11.434Z,75.63
2024-03-27T03:24:41.448Z,75.53
2024-03-27T03:25:11.400Z,75.53
2024-03-27T03:25:41.403Z,75.53
2024-03-27T03:26:11.396Z,75.49
2024-03-27T03:26:41.404Z,75.49
2024-03-27T03:27:11.465Z,75.60
2024-03-27T03:27:41.430Z,75.60
2024-03-27T03:28:11.368Z,75.60
2024-03-27T03:28:41.523Z,75.60
2024-03-27T03:29:11.388Z,75.60
2024-03-27T03:29:41.351Z,75.70
2024-03-27T03:30:11.485Z,75.70
2024-03-27T03:30:41.361Z,75.60
2024-03-27T03:31:11.338Z,75.70
2024-03-27T03:31:41.340Z,75.81
2024-03-27T03:32:11.379Z,75.91
2024-03-27T03:32:41.497Z,76.01
2024-03-27T03:33:11.482Z,76.12
2024-03-27T03:33:41.338Z,75.84
2024-03-27T03:34:11.303Z,75.74
2024-03-27T03:34:41.346Z,75.63
2024-03-27T03:35:11.321Z,75.63
2024-03-27T03:35:41.325Z,75.63
2024-03-27T03:36:11.285Z,75.63
2024-03-27T03:36:41.286Z,75.74
2024-03-27T03:37:11.368Z,75.74
2024-03-27T03:37:41.332Z,75.74
2024-03-27T03:38:11.338Z,75.74
2024-03-27T03:38:41.292Z,75.70
2024-03-27T03:39:11.245Z,75.74
2024-03-27T03:39:41.244Z,75.60
2024-03-27T03:40:11.307Z,75.29
2024-03-27T03:40:41.275Z,75.09
2024-03-27T03:41:11.247Z,75.09
2024-03-27T03:41:41.224Z,75.39
2024-03-27T03:42:11.223Z,75.60
2024-03-27T03:42:41.213Z,75.60
2024-03-27T03:43:11.216Z,75.60
2024-03-27T03:43:41.241Z,75.60
2024-03-27T03:44:11.198Z,75.60
2024-03-27T03:44:41.207Z,75.60
2024-03-27T03:45:11.201Z,75.81
2024-03-27T03:45:41.179Z,76.01
2024-03-27T03:46:14.100Z,76.21
2024-03-27T03:46:44.195Z,76.32
2024-03-27T03:47:29.283Z,76.53
2024-03-27T03:47:41.170Z,76.63
2024-03-27T03:48:11.177Z,76.84
2024-03-27T03:48:41.230Z,76.94
2024-03-27T03:49:11.158Z,77.04
2024-03-27T03:49:41.142Z,77.28
2024-03-27T03:50:11.158Z,77.28
2024-03-27T03:50:41.153Z,77.49
2024-03-27T03:51:11.115Z,77.70
2024-03-27T03:51:41.144Z,77.70
2024-03-27T03:52:11.127Z,77.80
2024-03-27T03:52:41.123Z,77.80
2024-03-27T03:53:11.132Z,77.91
2024-03-27T03:53:41.155Z,78.01
2024-03-27T03:54:11.088Z,78.21
2024-03-27T03:54:41.120Z,78.42
2024-03-27T03:55:11.080Z,78.52
2024-03-27T03:55:41.117Z,78.83
2024-03-27T03:56:11.119Z,79.08
2024-03-27T03:56:41.085Z,79.28
2024-03-27T03:57:11.075Z,79.38
2024-03-27T03:57:41.059Z,79.49
2024-03-27T03:58:11.059Z,79.59
2024-03-27T03:58:41.075Z,79.69
2024-03-27T03:59:11.091Z,79.80
2024-03-27T03:59:41.054Z,79.90
2024-03-27T04:00:11.050Z,79.90
2024-03-27T04:00:41.137Z,80.00
2024-03-27T04:01:11.240Z,80.11
2024-03-27T04:01:41.067Z,80.11
2024-03-27T04:02:11.080Z,80.11
2024-03-27T04:02:40.998Z,80.32
2024-03-27T04:03:10.987Z,80.32
2024-03-27T04:03:41.038Z,80.46
2024-03-27T04:04:11.017Z,80.46
2024-03-27T04:04:41.037Z,80.46
2024-03-27T04:05:11.001Z,80.46
2024-03-27T04:05:40.978Z,80.46
2024-03-27T04:06:11.004Z,80.56
2024-03-27T04:06:40.972Z,80.46
2024-03-27T04:07:10.948Z,80.46
2024-03-27T04:07:40.977Z,80.56
2024-03-27T04:08:10.966Z,80.56
2024-03-27T04:08:40.959Z,80.56
2024-03-27T04:09:10.933Z,80.66
2024-03-27T04:09:41.107Z,80.66
2024-03-27T04:10:10.963Z,80.66
2024-03-27T04:10:40.916Z,80.76
2024-03-27T04:11:10.974Z,80.87
2024-03-27T04:11:40.905Z,80.87
2024-03-27T04:12:10.905Z,80.87
2024-03-27T04:12:41.202Z,81.11
2024-03-27T04:13:10.891Z,81.21
2024-03-27T04:13:40.921Z,81.11
2024-03-27T04:14:10.895Z,81.32
2024-03-27T04:14:43.936Z,81.63
2024-03-27T04:15:29.001Z,81.94
2024-03-27T04:15:40.871Z,82.04
2024-03-27T04:16:10.863Z,82.18
2024-03-27T04:16:40.848Z,82.39
2024-03-27T04:17:10.862Z,82.50
2024-03-27T04:17:40.836Z,82.60
2024-03-27T04:18:10.842Z,82.70
2024-03-27T04:18:40.897Z,82.70
2024-03-27T04:19:10.817Z,82.90
2024-03-27T04:19:40.851Z,82.90
2024-03-27T04:20:12.968Z,83.01
2024-03-27T04:20:40.833Z,83.11
2024-03-27T04:21:10.843Z,83.22
2024-03-27T04:21:40.817Z,83.22
2024-03-27T04:22:10.814Z,83.32
2024-03-27T04:22:40.797Z,83.32
2024-03-27T04:23:10.771Z,83.32
2024-03-27T04:23:40.801Z,83.22
2024-03-27T04:24:10.779Z,83.22
2024-03-27T04:24:40.794Z,83.22
2024-03-27T04:25:10.757Z,83.22
2024-03-27T04:25:54.114Z,83.32
2024-03-27T04:26:10.754Z,83.32
2024-03-27T04:26:40.767Z,83.32
2024-03-27T04:27:10.751Z,83.42
2024-03-27T04:27:41.424Z,83.42
2024-03-27T04:28:10.759Z,83.42
2024-03-27T04:28:40.861Z,83.53
2024-03-27T04:29:10.917Z,83.63
2024-03-27T04:29:40.769Z,83.63
2024-03-27T04:30:10.714Z,83.63
2024-03-27T04:30:40.713Z,83.63
2024-03-27T04:31:10.723Z,83.63
2024-03-27T04:31:40.698Z,83.53
2024-03-27T04:32:10.703Z,83.53
2024-03-27T04:32:40.741Z,83.42
2024-03-27T04:33:10.698Z,83.53
2024-03-27T04:33:40.692Z,83.53
2024-03-27T04:34:10.689Z,83.53
2024-03-27T04:34:40.696Z,83.53
2024-03-27T04:35:10.739Z,83.42
2024-03-27T04:35:40.667Z,83.42
2024-03-27T04:36:10.636Z,83.32
2024-03-27T04:36:40.661Z,83.32
2024-03-27T04:37:10.626Z,83.42
2024-03-27T04:37:40.670Z,83.42
2024-03-27T04:38:10.611Z,83.42
2024-03-27T04:38:40.621Z,83.53
2024-03-27T04:39:10.614Z,83.63
2024-03-27T04:39:40.622Z,83.67
2024-03-27T04:40:10.594Z,83.53
2024-03-27T04:40:40.622Z,83.63
2024-03-27T04:41:10.534Z,83.67
2024-03-27T04:41:40.563Z,83.67
2024-03-27T04:42:10.516Z,83.56
2024-03-27T04:42:40.640Z,83.56
2024-03-27T04:43:10.674Z,83.56
2024-03-27T04:43:40.518Z,83.46
2024-03-27T04:44:10.501Z,83.46
2024-03-27T04:44:40.484Z,83.25
2024-03-27T04:45:10.504Z,83.05
2024-03-27T04:45:40.550Z,82.95
2024-03-27T04:46:10.477Z,82.84
2024-03-27T04:46:40.474Z,82.64
2024-03-27T04:47:10.481Z,82.64
2024-03-27T04:47:40.479Z,82.64
2024-03-27T04:48:10.505Z,82.53
2024-03-27T04:48:40.450Z,82.43
2024-03-27T04:49:10.461Z,82.43
2024-03-27T04:49:40.442Z,82.32
2024-03-27T04:50:10.471Z,82.32
2024-03-27T04:50:40.423Z,82.29
2024-03-27T04:51:10.444Z,82.29
2024-03-27T04:51:40.424Z,82.39
2024-03-27T04:52:10.401Z,82.29
2024-03-27T04:52:40.416Z,82.18
2024-03-27T04:53:10.440Z,82.18
2024-03-27T04:53:40.383Z,82.18
2024-03-27T04:54:10.432Z,82.08
2024-03-27T04:54:40.386Z,82.18
2024-03-27T04:55:10.447Z,82.18
2024-03-27T04:55:41.078Z,82.18
2024-03-27T04:56:10.353Z,82.18
2024-03-27T04:56:40.487Z,82.18
2024-03-27T04:57:10.589Z,82.18
2024-03-27T04:57:40.369Z,82.08
2024-03-27T04:58:10.335Z,82.08
2024-03-27T04:58:40.342Z,82.12
2024-03-27T04:59:10.319Z,82.22
2024-03-27T04:59:40.373Z,82.22
2024-03-27T05:00:10.428Z,82.22
2024-03-27T05:00:40.351Z,82.32
2024-03-27T05:01:10.315Z,82.43
2024-03-27T05:01:40.362Z,82.53
2024-03-27T05:02:10.293Z,82.64
2024-03-27T05:02:40.300Z,82.64
2024-03-27T05:03:10.306Z,82.74
2024-03-27T05:03:40.295Z,82.84
2024-03-27T05:04:10.274Z,82.95
2024-03-27T05:04:40.311Z,83.05
2024-03-27T05:05:10.310Z,83.19
2024-03-27T05:05:40.256Z,83.29
2024-03-27T05:06:10.242Z,83.40
2024-03-27T05:06:40.322Z,83.40
2024-03-27T05:07:10.252Z,83.50
2024-03-27T05:07:40.255Z,83.61
2024-03-27T05:08:10.239Z,83.71
2024-03-27T05:08:40.267Z,83.91
2024-03-27T05:09:10.244Z,84.01
2024-03-27T05:09:40.228Z,84.12
2024-03-27T05:10:10.275Z,84.22
2024-03-27T05:10:40.328Z,84.33
2024-03-27T05:11:10.375Z,84.43
2024-03-27T05:11:40.247Z,84.43
2024-03-27T05:12:10.196Z,84.43
2024-03-27T05:12:40.208Z,84.43
2024-03-27T05:13:10.173Z,84.43
2024-03-27T05:13:40.221Z,84.53
2024-03-27T05:14:10.178Z,84.53
2024-03-27T05:14:40.162Z,84.53
2024-03-27T05:15:10.162Z,84.53
2024-03-27T05:15:41.092Z,84.53
2024-03-27T05:16:10.149Z,84.53
2024-03-27T05:16:40.142Z,84.43
2024-03-27T05:17:10.138Z,84.43
2024-03-27T05:17:40.140Z,84.33
2024-03-27T05:18:10.116Z,84.33
2024-03-27T05:18:40.137Z,84.43
2024-03-27T05:19:10.174Z,84.43
2024-03-27T05:19:40.127Z,84.43
2024-03-27T05:20:10.101Z,84.43
2024-03-27T05:20:40.118Z,84.78
2024-03-27T05:21:10.145Z,84.99
2024-03-27T05:21:40.112Z,84.99
2024-03-27T05:22:10.094Z,85.09
2024-03-27T05:22:40.083Z,85.19
2024-03-27T05:23:12.913Z,85.30
2024-03-27T05:23:40.073Z,85.50
2024-03-27T05:24:10.106Z,85.61
2024-03-27T05:24:40.209Z,85.50
2024-03-27T05:25:10.342Z,85.50
2024-03-27T05:25:40.046Z,85.55
2024-03-27T05:26:10.052Z,85.86
2024-03-27T05:26:40.042Z,86.07
2024-03-27T05:27:10.050Z,86.27
2024-03-27T05:27:40.133Z,86.37
2024-03-27T05:28:11.946Z,86.47
2024-03-27T05:28:40.042Z,86.58
2024-03-27T05:29:10.051Z,86.68
2024-03-27T05:29:40.076Z,86.89
2024-03-27T05:30:10.006Z,86.99
2024-03-27T05:30:40.021Z,87.10
2024-03-27T05:31:10.026Z,87.10
2024-03-27T05:31:40.017Z,87.20
2024-03-27T05:32:10.091Z,87.30
2024-03-27T05:32:39.981Z,87.41
2024-03-27T05:33:09.998Z,87.51
2024-03-27T05:33:40.072Z,87.51
2024-03-27T05:34:09.975Z,87.41
2024-03-27T05:34:39.978Z,87.41
2024-03-27T05:35:09.949Z,87.41
2024-03-27T05:35:39.963Z,87.30
2024-03-27T05:36:17.235Z,87.20
2024-03-27T05:36:40.021Z,87.20
2024-03-27T05:37:09.978Z,87.10
2024-03-27T05:37:39.924Z,86.99
2024-03-27T05:38:09.915Z,86.99
2024-03-27T05:38:40.042Z,86.99
2024-03-27T05:39:10.061Z,86.99
2024-03-27T05:39:39.948Z,86.89
2024-03-27T05:40:09.889Z,86.79
2024-03-27T05:40:39.922Z,86.79
2024-03-27T05:41:09.901Z,86.75
2024-03-27T05:41:39.900Z,86.75
2024-03-27T05:42:09.899Z,86.65
2024-03-27T05:42:39.970Z,86.65
2024-03-27T05:43:09.869Z,86.54
2024-03-27T05:43:39.865Z,86.54
2024-03-27T05:44:09.919Z,86.44
2024-03-27T05:44:39.892Z,86.33
2024-03-27T05:45:09.862Z,86.33
2024-03-27T05:45:39.910Z,86.13
2024-03-27T05:46:09.852Z,86.02
2024-03-27T05:46:39.835Z,85.82
2024-03-27T05:47:09.830Z,85.71
2024-03-27T05:47:39.865Z,85.71
2024-03-27T05:48:09.843Z,85.61
2024-03-27T05:48:39.821Z,85.50
2024-03-27T05:49:09.845Z,85.50
2024-03-27T05:49:39.818Z,85.30
2024-03-27T05:50:09.799Z,85.09
2024-03-27T05:50:39.837Z,84.99
2024-03-27T05:51:09.811Z,84.78
2024-03-27T05:51:39.822Z,84.68
2024-03-27T05:52:09.807Z,84.68
2024-03-27T05:52:43.613Z,84.68
2024-03-27T05:53:27.894Z,84.47
2024-03-27T05:53:39.788Z,84.47
2024-03-27T05:54:09.745Z,84.37
2024-03-27T05:54:39.812Z,84.37
2024-03-27T05:55:09.777Z,84.27
2024-03-27T05:55:39.732Z,84.16
2024-03-27T05:56:09.784Z,84.12
2024-03-27T05:56:39.751Z,84.01
2024-03-27T05:57:09.731Z,84.01
2024-03-27T05:57:40.628Z,83.91
2024-03-27T05:58:09.726Z,83.91
2024-03-27T05:58:39.738Z,83.91
2024-03-27T05:59:09.715Z,83.91
2024-03-27T05:59:39.704Z,83.91
2024-03-27T06:00:09.707Z,83.91
2024-03-27T06:00:39.727Z,83.71
2024-03-27T06:01:09.709Z,83.71
2024-03-27T06:01:39.692Z,83.71
2024-03-27T06:02:09.689Z,83.50
2024-03-27T06:02:39.725Z,83.09
2024-03-27T06:03:09.709Z,82.78
2024-03-27T06:03:39.745Z,82.57
2024-03-27T06:04:09.742Z,82.36
2024-03-27T06:04:39.745Z,82.26
2024-03-27T06:05:09.717Z,82.22
2024-03-27T06:05:39.724Z,82.22
2024-03-27T06:06:09.968Z,82.32
2024-03-27T06:06:39.812Z,82.32
2024-03-27T06:07:09.776Z,82.43
2024-03-27T06:07:39.666Z,82.22
2024-03-27T06:08:09.657Z,82.22
2024-03-27T06:08:39.658Z,82.12
2024-03-27T06:09:09.602Z,82.12
2024-03-27T06:09:39.719Z,82.12
2024-03-27T06:10:09.610Z,82.01
2024-03-27T06:10:39.679Z,81.91
2024-03-27T06:11:09.645Z,81.91
2024-03-27T06:11:39.660Z,81.81
2024-03-27T06:12:09.601Z,81.81
2024-03-27T06:12:39.664Z,81.81
2024-03-27T06:13:09.643Z,81.81
2024-03-27T06:13:39.602Z,81.81
2024-03-27T06:14:09.552Z,81.91
2024-03-27T06:14:39.616Z,81.91
2024-03-27T06:15:09.670Z,81.81
2024-03-27T06:15:39.715Z,81.81
2024-03-27T06:16:09.619Z,81.77
2024-03-27T06:16:39.616Z,81.67
2024-03-27T06:17:09.693Z,81.56
2024-03-27T06:17:39.552Z,81.56
2024-03-27T06:18:09.623Z,81.46
2024-03-27T06:18:39.913Z,81.35
2024-03-27T06:19:09.593Z,81.25
2024-03-27T06:19:39.601Z,80.94
2024-03-27T06:20:09.692Z,80.63
2024-03-27T06:20:42.651Z,80.53
2024-03-27T06:21:27.756Z,80.53
2024-03-27T06:21:39.626Z,80.43
2024-03-27T06:22:09.496Z,80.32
2024-03-27T06:22:39.573Z,80.18
2024-03-27T06:23:09.466Z,80.08
2024-03-27T06:23:39.530Z,79.97
2024-03-27T06:24:09.598Z,79.97
2024-03-27T06:24:39.569Z,79.87
2024-03-27T06:25:09.469Z,79.87
2024-03-27T06:25:39.663Z,79.77
2024-03-27T06:26:09.742Z,79.77